Time;durP1;ratioP1;P1;durP2;ratioP2;P2;SDS_P1;SDS_P2;PMS_P1;PMS_P2;Temp;Humidity;BMP_temperature;BMP_pressure;BME280_temperature;BME280_humidity;BME280_pressure;Samples;Min_cycle;Max_cycle;Signal;HPM_P1;HPM_P2
2022/06/26 00:00:02;;;;;;;1.10;1.00;;;21.40;72.30;;;;;;5056867;28;20474;-45
2022/06/26 00:02:29;;;;;;;1.37;1.00;;;21.30;72.80;;;;;;5036824;28;21055;-45
2022/06/26 00:04:56;;;;;;;2.37;1.20;;;21.20;73.30;;;;;;5040725;28;20461;-45
2022/06/26 00:07:23;;;;;;;1.23;0.80;;;21.10;73.80;;;;;;5059688;28;20469;-45
2022/06/26 00:09:49;;;;;;;2.60;0.93;;;21.10;74.10;;;;;;5059213;28;21003;-46
2022/06/26 00:12:16;;;;;;;2.60;0.90;;;21.00;74.60;;;;;;5063423;28;20460;-45
2022/06/26 00:14:43;;;;;;;1.43;0.83;;;21.00;74.90;;;;;;5059613;28;20876;-45
2022/06/26 00:17:10;;;;;;;1.03;0.80;;;21.00;75.30;;;;;;5044228;28;20501;-45
2022/06/26 00:19:37;;;;;;;1.20;1.10;;;20.90;75.20;;;;;;5061991;28;20446;-45
2022/06/26 00:22:05;;;;;;;1.00;1.00;;;20.90;75.30;;;;;;5056693;28;20508;-45
2022/06/26 00:24:33;;;;;;;0.83;0.83;;;20.80;75.60;;;;;;5045136;28;20775;-45
2022/06/26 00:27:02;;;;;;;0.80;0.80;;;20.80;75.40;;;;;;5041157;28;20454;-45
2022/06/26 00:29:33;;;;;;;1.30;1.20;;;20.80;75.60;;;;;;5054546;28;20902;-45
2022/06/26 00:32:01;;;;;;;2.47;1.33;;;20.80;75.70;;;;;;5058305;28;20544;-45
2022/06/26 00:34:28;;;;;;;2.93;1.03;;;20.80;75.80;;;;;;5057994;28;20454;-45
2022/06/26 00:36:55;;;;;;;1.47;1.00;;;20.80;75.70;;;;;;5059625;28;20468;-45
2022/06/26 00:39:22;;;;;;;2.93;1.20;;;20.80;76.00;;;;;;5040673;28;20462;-45
2022/06/26 00:41:51;;;;;;;1.57;1.47;;;20.80;76.10;;;;;;5034552;28;20492;-45
2022/06/26 00:44:21;;;;;;;2.20;1.60;;;20.80;76.40;;;;;;5054577;28;20449;-45
2022/06/26 00:46:48;;;;;;;1.70;1.60;;;20.80;76.50;;;;;;5063189;28;20558;-45
2022/06/26 00:49:15;;;;;;;1.50;1.20;;;20.90;76.40;;;;;;5052808;28;20541;-45
2022/06/26 00:51:49;;;;;;;5.63;1.60;;;20.90;76.40;;;;;;5060205;28;20543;-45
2022/06/26 00:54:17;;;;;;;2.10;1.47;;;20.90;76.70;;;;;;5055279;28;20462;-45
2022/06/26 00:56:44;;;;;;;3.53;2.00;;;20.90;76.60;;;;;;5055390;28;20552;-45
2022/06/26 00:59:11;;;;;;;2.07;1.70;;;20.90;76.70;;;;;;5045086;28;20540;-46
2022/06/26 01:01:38;;;;;;;2.00;1.50;;;20.90;76.80;;;;;;5044136;28;21165;-45
2022/06/26 01:04:05;;;;;;;2.10;1.73;;;20.90;76.80;;;;;;5057401;28;20487;-45
2022/06/26 01:06:33;;;;;;;1.80;1.70;;;21.00;76.70;;;;;;5056514;28;21047;-45
2022/06/26 01:09:00;;;;;;;1.60;1.50;;;21.00;76.70;;;;;;5059529;28;20537;-45
2022/06/26 01:11:27;;;;;;;1.50;1.30;;;21.00;76.80;;;;;;5055376;28;20469;-45
2022/06/26 01:13:56;;;;;;;2.30;1.50;;;21.00;76.80;;;;;;5058535;28;20468;-45
2022/06/26 01:16:24;;;;;;;3.43;1.97;;;21.00;76.80;;;;;;5055293;28;20577;-46
2022/06/26 01:18:53;;;;;;;2.47;2.27;;;21.00;76.50;;;;;;5056974;28;20469;-45
2022/06/26 01:21:21;;;;;;;1.63;1.53;;;21.00;76.50;;;;;;5043985;28;20614;-45
2022/06/26 01:23:49;;;;;;;2.00;1.80;;;21.00;76.80;;;;;;5043723;28;20510;-45
2022/06/26 01:26:18;;;;;;;1.40;1.30;;;21.00;77.00;;;;;;5064812;28;20453;-45
2022/06/26 01:28:45;;;;;;;2.40;1.50;;;21.00;77.10;;;;;;5061436;28;20474;-45
2022/06/26 01:31:12;;;;;;;1.50;1.40;;;21.00;77.00;;;;;;5059879;28;20496;-45
2022/06/26 01:33:39;;;;;;;1.80;1.50;;;21.00;76.90;;;;;;5059527;28;20862;-45
2022/06/26 01:36:06;;;;;;;3.23;1.80;;;21.00;76.70;;;;;;5049478;28;20458;-45
2022/06/26 01:38:33;;;;;;;1.70;1.30;;;21.10;76.50;;;;;;5046544;28;20519;-45
2022/06/26 01:41:00;;;;;;;2.20;2.00;;;21.10;76.50;;;;;;5045922;28;20465;-45
2022/06/26 01:43:30;;;;;;;2.03;1.77;;;21.10;76.30;;;;;;5059459;28;20471;-45
2022/06/26 01:45:58;;;;;;;2.30;1.70;;;21.10;76.00;;;;;;5056249;28;20557;-46
2022/06/26 01:48:26;;;;;;;2.73;2.53;;;21.10;76.00;;;;;;5028730;28;20487;-45
2022/06/26 01:50:56;;;;;;;4.37;1.87;;;21.10;76.00;;;;;;5061581;28;20461;-45
2022/06/26 01:53:23;;;;;;;2.30;1.53;;;21.10;76.30;;;;;;5044844;28;20873;-45
2022/06/26 01:55:50;;;;;;;2.03;1.67;;;21.20;76.20;;;;;;5049050;28;20540;-45
2022/06/26 01:58:17;;;;;;;1.40;1.30;;;21.20;75.40;;;;;;5058265;28;20463;-45
2022/06/26 02:00:45;;;;;;;1.43;1.20;;;21.20;75.70;;;;;;5064656;28;20494;-46
2022/06/26 02:03:15;;;;;;;2.50;1.23;;;21.20;75.60;;;;;;5035077;28;20584;-46
2022/06/26 02:05:42;;;;;;;1.57;1.40;;;21.20;75.50;;;;;;5060393;28;20462;-45
2022/06/26 02:08:09;;;;;;;1.37;1.27;;;21.30;75.30;;;;;;5045834;28;20457;-45
2022/06/26 02:13:37;;;;;;;1.10;1.00;;;21.10;75.70;;;;;;5058946;28;21017;-45
2022/06/26 02:16:09;;;;;;;2.13;1.37;;;21.10;75.90;;;;;;5046730;28;20842;-45
2022/06/26 02:18:37;;;;;;;1.80;1.23;;;21.00;76.10;;;;;;5046366;28;20461;-45
2022/06/26 02:21:09;;;;;;;1.43;1.27;;;21.00;76.20;;;;;;5057082;28;20543;-45
2022/06/26 02:23:37;;;;;;;1.63;1.53;;;20.90;76.80;;;;;;5059853;28;20453;-45
2022/06/26 02:26:07;;;;;;;1.30;1.20;;;20.90;76.90;;;;;;5055797;28;20533;-45
2022/06/26 02:28:35;;;;;;;1.57;1.30;;;20.90;77.30;;;;;;5056866;28;20466;-45
2022/06/26 02:31:03;;;;;;;2.57;1.20;;;20.90;77.00;;;;;;5057218;28;20745;-45
2022/06/26 02:33:32;;;;;;;1.10;1.00;;;20.90;77.30;;;;;;5046799;28;21013;-45
2022/06/26 02:35:59;;;;;;;2.17;1.10;;;20.80;77.30;;;;;;5056249;28;20932;-45
2022/06/26 02:38:26;;;;;;;1.43;0.90;;;20.80;77.10;;;;;;5059325;28;20511;-45
2022/06/26 02:40:53;;;;;;;1.27;0.93;;;20.80;77.00;;;;;;5051364;28;20477;-45
2022/06/26 02:43:23;;;;;;;1.07;1.00;;;20.80;77.20;;;;;;5057444;28;20611;-45
2022/06/26 02:45:55;;;;;;;1.20;1.10;;;20.80;76.80;;;;;;5059719;28;20902;-45
2022/06/26 02:48:23;;;;;;;0.67;0.63;;;20.80;76.90;;;;;;5029029;28;20672;-48
2022/06/26 02:50:50;;;;;;;2.90;1.00;;;20.80;76.80;;;;;;5037374;28;20473;-49
2022/06/26 02:53:17;;;;;;;1.73;1.17;;;20.80;76.30;;;;;;5052907;28;20458;-49
2022/06/26 02:55:44;;;;;;;1.87;1.27;;;20.90;75.90;;;;;;5059296;28;20899;-45
2022/06/26 02:58:11;;;;;;;1.00;0.97;;;20.90;75.60;;;;;;5060622;28;20469;-45
2022/06/26 03:00:39;;;;;;;2.37;1.00;;;20.90;75.90;;;;;;5046379;28;20496;-46
2022/06/26 03:03:06;;;;;;;1.17;1.07;;;20.90;76.30;;;;;;5040778;28;20482;-45
2022/06/26 03:05:33;;;;;;;1.30;1.20;;;20.90;76.30;;;;;;5049065;28;20938;-45
2022/06/26 03:08:00;;;;;;;0.90;0.80;;;20.90;76.20;;;;;;5056416;28;20446;-45
2022/06/26 03:10:27;;;;;;;1.10;1.00;;;20.90;76.20;;;;;;5057883;28;20457;-45
2022/06/26 03:12:54;;;;;;;1.30;1.20;;;20.90;76.40;;;;;;5054406;28;20461;-45
2022/06/26 03:15:21;;;;;;;1.13;1.07;;;20.80;76.60;;;;;;5053958;28;20986;-45
2022/06/26 03:17:48;;;;;;;1.33;0.93;;;20.80;76.70;;;;;;5022865;28;1097917;-45
2022/06/26 03:20:18;;;;;;;1.60;1.37;;;20.80;76.70;;;;;;5040888;28;20204;-45
2022/06/26 03:22:50;;;;;;;1.60;1.00;;;20.70;76.60;;;;;;5057414;28;20485;-45
2022/06/26 03:25:17;;;;;;;1.23;1.00;;;20.80;76.70;;;;;;5054217;28;21120;-45
2022/06/26 03:27:44;;;;;;;2.00;1.13;;;20.80;76.40;;;;;;5056704;28;20458;-45
2022/06/26 03:30:12;;;;;;;1.03;0.93;;;20.80;76.50;;;;;;5058450;28;20484;-45
2022/06/26 03:32:38;;;;;;;1.90;1.00;;;20.80;76.80;;;;;;5038227;28;20461;-45
2022/06/26 03:35:06;;;;;;;1.20;1.10;;;20.80;76.60;;;;;;5056663;28;20477;-45
2022/06/26 03:37:33;;;;;;;1.37;0.80;;;20.80;76.30;;;;;;5043076;28;20462;-45
2022/06/26 03:40:01;;;;;;;1.50;0.73;;;20.80;76.50;;;;;;5040551;28;20570;-45
2022/06/26 03:42:28;;;;;;;1.00;0.90;;;20.80;76.60;;;;;;5058032;28;20489;-45
2022/06/26 03:44:54;;;;;;;1.30;1.00;;;20.80;76.70;;;;;;5040740;28;20455;-45
2022/06/26 03:47:21;;;;;;;1.33;1.23;;;20.80;76.20;;;;;;5057629;28;20477;-45
2022/06/26 03:49:53;;;;;;;1.50;1.40;;;20.70;76.60;;;;;;5055943;28;20535;-45
2022/06/26 03:52:22;;;;;;;2.20;1.03;;;20.70;77.00;;;;;;5038112;28;20458;-45
2022/06/26 03:54:49;;;;;;;1.77;1.10;;;20.70;77.20;;;;;;5057738;28;20493;-45
2022/06/26 03:57:15;;;;;;;1.60;1.50;;;20.70;77.50;;;;;;5057599;28;20467;-45
2022/06/26 03:59:49;;;;;;;2.30;1.43;;;20.70;77.70;;;;;;5044721;28;20573;-46
2022/06/26 04:02:16;;;;;;;2.30;1.57;;;20.70;78.00;;;;;;5043346;28;20489;-45
2022/06/26 04:04:42;;;;;;;4.30;1.67;;;20.70;78.50;;;;;;5056708;28;20917;-45
2022/06/26 04:07:12;;;;;;;1.87;1.40;;;20.60;78.60;;;;;;5055546;28;20461;-45
2022/06/26 04:09:39;;;;;;;1.93;1.40;;;20.60;79.30;;;;;;5060735;28;20462;-45
2022/06/26 04:12:06;;;;;;;1.40;1.30;;;20.60;79.30;;;;;;5055515;28;20465;-45
2022/06/26 04:14:33;;;;;;;4.83;1.90;;;20.60;79.70;;;;;;5043122;28;20465;-45
2022/06/26 04:17:00;;;;;;;3.43;1.60;;;20.60;79.80;;;;;;5060651;28;20969;-45
2022/06/26 04:19:27;;;;;;;2.10;1.30;;;20.60;79.70;;;;;;5044193;28;20532;-45
2022/06/26 04:21:53;;;;;;;1.40;1.30;;;20.60;79.70;;;;;;5053774;28;20663;-46
2022/06/26 04:24:20;;;;;;;1.80;1.50;;;20.60;79.80;;;;;;5058004;28;20540;-45
2022/06/26 04:26:47;;;;;;;1.63;1.40;;;20.60;80.00;;;;;;5058747;28;20469;-45
2022/06/26 04:29:13;;;;;;;1.87;1.40;;;20.60;80.00;;;;;;5057642;28;20945;-45
2022/06/26 04:31:40;;;;;;;1.40;1.30;;;20.60;80.10;;;;;;5061997;28;20469;-45
2022/06/26 04:34:07;;;;;;;1.57;1.33;;;20.50;80.20;;;;;;5056646;28;20478;-45
2022/06/26 04:36:34;;;;;;;2.40;1.30;;;20.50;80.20;;;;;;5053117;28;20457;-45
2022/06/26 04:39:01;;;;;;;1.93;1.20;;;20.60;80.30;;;;;;5055404;28;20465;-45
2022/06/26 04:41:36;;;;;;;3.80;1.53;;;20.60;80.30;;;;;;5054353;28;20463;-45
2022/06/26 04:44:06;;;;;;;1.20;1.00;;;20.60;80.20;;;;;;5042039;28;20530;-45
2022/06/26 04:46:33;;;;;;;1.40;1.30;;;20.60;79.90;;;;;;5056623;28;20488;-45
2022/06/26 04:49:00;;;;;;;3.50;1.73;;;20.60;80.00;;;;;;5054611;28;20480;-45
2022/06/26 04:51:27;;;;;;;2.00;1.63;;;20.60;80.10;;;;;;5056020;28;20818;-45
2022/06/26 04:53:54;;;;;;;2.20;1.27;;;20.60;80.10;;;;;;5053240;28;20544;-45
2022/06/26 04:56:21;;;;;;;2.73;1.63;;;20.60;80.00;;;;;;5059897;28;20851;-45
2022/06/26 04:58:48;;;;;;;3.23;1.40;;;20.60;80.10;;;;;;5045547;28;20969;-45
2022/06/26 05:01:15;;;;;;;1.97;1.30;;;20.60;80.20;;;;;;5059247;28;20991;-45
2022/06/26 05:03:42;;;;;;;1.93;1.63;;;20.60;79.30;;;;;;5036785;28;20504;-45
2022/06/26 05:06:09;;;;;;;1.70;1.00;;;20.60;79.00;;;;;;5047729;28;20441;-45
2022/06/26 05:08:36;;;;;;;1.30;1.20;;;20.70;79.10;;;;;;5054413;28;20465;-45
2022/06/26 05:11:03;;;;;;;3.13;1.47;;;20.60;79.30;;;;;;5062757;28;20465;-45
2022/06/26 05:13:30;;;;;;;1.73;1.30;;;20.60;79.40;;;;;;5042944;28;20464;-45
2022/06/26 05:16:00;;;;;;;3.53;1.73;;;20.60;79.50;;;;;;5053157;28;20471;-45
2022/06/26 05:18:27;;;;;;;1.93;1.30;;;20.60;79.60;;;;;;5046948;28;20469;-45
2022/06/26 05:20:55;;;;;;;1.10;1.00;;;20.60;79.60;;;;;;5050723;28;20460;-46
2022/06/26 05:23:21;;;;;;;1.53;1.27;;;20.60;79.40;;;;;;5054458;28;20848;-45
2022/06/26 05:25:48;;;;;;;1.20;1.10;;;20.70;79.00;;;;;;5057464;28;20453;-45
2022/06/26 05:28:16;;;;;;;2.63;1.40;;;20.70;78.60;;;;;;5054475;28;20456;-45
2022/06/26 05:30:43;;;;;;;1.57;1.40;;;20.70;78.50;;;;;;5056765;28;21841;-45
2022/06/26 05:33:10;;;;;;;2.10;1.40;;;20.80;78.60;;;;;;5058820;28;20457;-45
2022/06/26 05:35:38;;;;;;;1.30;1.20;;;20.80;78.40;;;;;;5057752;28;20489;-45
2022/06/26 05:38:05;;;;;;;4.57;1.63;;;20.80;78.40;;;;;;5056852;28;20493;-45
2022/06/26 05:40:32;;;;;;;1.90;1.50;;;20.90;78.10;;;;;;5024182;28;20466;-45
2022/06/26 05:42:58;;;;;;;1.70;1.30;;;20.90;78.10;;;;;;5055953;28;20497;-45
2022/06/26 05:45:25;;;;;;;1.53;1.20;;;20.80;78.00;;;;;;5039334;28;20460;-45
2022/06/26 05:47:52;;;;;;;2.30;1.57;;;20.90;78.20;;;;;;5042921;28;20467;-45
2022/06/26 05:50:20;;;;;;;1.47;1.23;;;20.90;78.10;;;;;;5039839;28;20548;-45
2022/06/26 05:52:48;;;;;;;2.57;1.37;;;21.00;77.20;;;;;;5053744;28;20461;-45
2022/06/26 05:55:16;;;;;;;1.30;1.20;;;21.00;76.70;;;;;;5040933;28;20474;-45
2022/06/26 05:57:43;;;;;;;4.63;2.00;;;21.00;76.80;;;;;;5055497;28;20544;-45
2022/06/26 06:00:11;;;;;;;1.90;1.70;;;21.00;77.20;;;;;;5042339;28;20520;-49
2022/06/26 06:02:38;;;;;;;3.60;1.60;;;21.00;76.60;;;;;;5050439;28;20497;-49
2022/06/26 06:05:06;;;;;;;1.80;1.13;;;21.00;76.50;;;;;;5049488;28;20458;-49
2022/06/26 06:07:35;;;;;;;1.50;1.40;;;21.00;76.40;;;;;;5037689;28;20457;-49
2022/06/26 06:10:07;;;;;;;1.73;1.17;;;21.00;76.60;;;;;;5042547;28;20520;-49
2022/06/26 06:12:34;;;;;;;1.40;1.30;;;21.00;76.50;;;;;;5062407;28;21050;-49
2022/06/26 06:15:02;;;;;;;1.73;1.37;;;21.00;76.90;;;;;;5059780;28;20805;-49
2022/06/26 06:17:41;;;;;;;1.30;1.20;;;21.00;76.50;;;;;;5054069;28;20461;-49
2022/06/26 06:20:19;;;;;;;1.97;1.07;;;21.20;75.20;;;;;;5059827;28;20937;-46
2022/06/26 06:22:51;;;;;;;1.30;1.20;;;21.20;75.40;;;;;;5054068;28;20499;-46
2022/06/26 06:25:17;;;;;;;1.53;1.00;;;21.30;75.60;;;;;;5058798;28;20458;-46
2022/06/26 06:27:44;;;;;;;4.37;1.37;;;21.40;74.30;;;;;;5045292;28;20825;-46
2022/06/26 06:30:13;;;;;;;1.40;1.13;;;21.50;74.20;;;;;;5057906;28;20462;-46
2022/06/26 06:32:41;;;;;;;1.60;1.30;;;21.50;73.70;;;;;;5060806;28;20553;-46
2022/06/26 06:35:11;;;;;;;2.67;1.40;;;21.60;73.70;;;;;;5058655;28;20557;-46
2022/06/26 06:37:38;;;;;;;1.30;1.20;;;21.60;74.00;;;;;;5057566;28;20450;-46
2022/06/26 06:40:05;;;;;;;7.07;1.57;;;21.60;73.80;;;;;;5059168;28;20519;-46
2022/06/26 06:42:32;;;;;;;1.10;1.00;;;21.60;73.40;;;;;;5053288;28;20847;-46
2022/06/26 06:44:59;;;;;;;1.10;1.00;;;21.60;73.90;;;;;;5042106;28;20457;-46
2022/06/26 06:47:26;;;;;;;1.10;1.00;;;21.60;73.80;;;;;;5051212;28;20452;-46
2022/06/26 06:49:53;;;;;;;1.23;0.80;;;21.70;73.50;;;;;;5056999;28;20458;-46
2022/06/26 06:52:19;;;;;;;1.37;0.93;;;21.70;72.70;;;;;;5059279;28;21029;-47
2022/06/26 06:54:47;;;;;;;2.27;1.10;;;21.80;72.20;;;;;;5059210;28;20480;-46
2022/06/26 06:57:15;;;;;;;0.90;0.90;;;21.90;72.00;;;;;;5057347;28;20845;-46
2022/06/26 06:59:42;;;;;;;0.93;0.93;;;22.00;72.60;;;;;;5057606;28;20848;-46
2022/06/26 07:02:09;;;;;;;1.53;1.20;;;22.00;72.40;;;;;;5041404;28;20450;-46
2022/06/26 07:04:36;;;;;;;1.30;1.20;;;22.10;72.60;;;;;;5052870;28;21006;-46
2022/06/26 07:07:06;;;;;;;1.13;1.03;;;22.10;72.50;;;;;;5040763;28;20900;-46
2022/06/26 07:09:33;;;;;;;1.00;0.90;;;22.20;72.10;;;;;;5039113;28;20970;-46
2022/06/26 07:11:59;;;;;;;2.00;1.13;;;22.30;72.30;;;;;;5056397;28;20468;-46
2022/06/26 07:14:26;;;;;;;1.63;0.97;;;22.40;71.70;;;;;;5055085;28;20490;-46
2022/06/26 07:16:53;;;;;;;1.73;0.80;;;22.50;70.80;;;;;;5048979;28;20477;-46
2022/06/26 07:19:19;;;;;;;1.03;0.90;;;22.60;71.50;;;;;;5044259;28;20465;-46
2022/06/26 07:21:47;;;;;;;1.90;1.00;;;22.70;70.80;;;;;;5059595;28;20511;-46
2022/06/26 07:24:14;;;;;;;4.10;1.20;;;22.70;69.80;;;;;;5061305;28;20511;-46
2022/06/26 07:26:41;;;;;;;1.10;1.00;;;22.80;69.30;;;;;;5056739;28;20467;-46
2022/06/26 07:29:08;;;;;;;1.70;1.03;;;22.90;69.30;;;;;;5055701;28;20818;-46
2022/06/26 07:31:35;;;;;;;2.70;1.00;;;23.00;69.30;;;;;;5042342;28;20458;-46
2022/06/26 07:34:17;;;;;;;1.73;0.93;;;23.10;68.40;;;;;;5038351;28;20534;-46
2022/06/26 07:36:47;;;;;;;2.10;0.90;;;23.20;68.80;;;;;;5059606;28;20560;-47
2022/06/26 07:39:16;;;;;;;2.23;1.00;;;23.30;68.70;;;;;;5059852;28;20466;-46
2022/06/26 07:41:44;;;;;;;2.00;0.97;;;23.50;68.50;;;;;;5039962;28;20475;-46
2022/06/26 07:44:11;;;;;;;2.30;1.20;;;23.70;67.80;;;;;;5057384;28;20491;-46
2022/06/26 07:46:38;;;;;;;1.73;1.30;;;23.80;67.20;;;;;;5045016;28;20524;-46
2022/06/26 07:49:06;;;;;;;4.43;0.93;;;23.90;66.70;;;;;;5054046;28;20465;-46
2022/06/26 07:51:34;;;;;;;1.33;1.23;;;24.10;66.00;;;;;;5042047;28;20462;-46
2022/06/26 07:54:01;;;;;;;1.90;1.03;;;24.30;66.00;;;;;;5056869;28;20714;-46
2022/06/26 07:56:28;;;;;;;1.33;1.00;;;24.40;65.50;;;;;;5054166;28;20826;-46
2022/06/26 07:58:55;;;;;;;1.37;1.10;;;24.60;64.80;;;;;;5056479;28;20938;-46
2022/06/26 08:01:22;;;;;;;2.93;1.03;;;24.70;65.00;;;;;;5050740;28;20486;-46
2022/06/26 08:03:49;;;;;;;1.77;1.00;;;24.80;64.60;;;;;;5044607;28;20584;-46
2022/06/26 08:06:16;;;;;;;1.57;0.83;;;24.90;64.40;;;;;;5054861;28;21032;-46
2022/06/26 08:08:43;;;;;;;2.63;1.10;;;25.00;63.40;;;;;;5041894;28;20961;-46
2022/06/26 08:11:10;;;;;;;1.13;0.90;;;25.10;64.00;;;;;;5034133;28;20945;-46
2022/06/26 08:13:37;;;;;;;1.67;0.93;;;25.20;63.80;;;;;;5057156;28;20830;-46
2022/06/26 08:16:04;;;;;;;1.83;1.37;;;25.40;64.00;;;;;;5052780;28;20569;-46
2022/06/26 08:18:31;;;;;;;1.97;1.00;;;25.60;63.50;;;;;;5057735;28;20871;-46
2022/06/26 08:22:00;;;;;;;1.17;1.07;;;25.70;63.10;;;;;;5018322;28;20564;-45
2022/06/26 08:23:45;;;;;;;2.77;0.90;;;25.90;61.80;;;;;;5053234;28;20576;-45
2022/06/26 08:26:11;;;;;;;1.47;0.93;;;26.10;60.60;;;;;;5053818;28;20541;-47
2022/06/26 08:28:38;;;;;;;1.50;0.73;;;26.20;60.10;;;;;;5041203;28;20465;-47
2022/06/26 08:31:05;;;;;;;0.80;0.80;;;26.20;59.90;;;;;;5045941;28;20524;-47
2022/06/26 08:33:32;;;;;;;0.90;0.90;;;26.30;60.00;;;;;;5051469;28;20460;-47
2022/06/26 08:35:59;;;;;;;0.90;0.80;;;26.40;59.30;;;;;;5037096;28;20475;-48
2022/06/26 08:38:25;;;;;;;0.97;0.93;;;26.60;59.10;;;;;;5052108;28;20497;-45
2022/06/26 08:40:53;;;;;;;0.80;0.80;;;26.70;58.40;;;;;;5035551;28;20477;-48
2022/06/26 08:43:22;;;;;;;2.13;0.77;;;26.80;57.40;;;;;;5055081;28;20246;-49
2022/06/26 08:45:57;;;;;;;2.10;1.13;;;26.90;56.90;;;;;;5053445;28;21027;-49
2022/06/26 08:48:27;;;;;;;0.80;0.70;;;26.90;57.20;;;;;;5055136;28;20370;-49
2022/06/26 08:50:55;;;;;;;2.00;1.10;;;27.10;57.60;;;;;;5054599;28;20467;-48
2022/06/26 08:53:24;;;;;;;1.63;0.90;;;27.20;57.50;;;;;;5056850;28;20886;-49
2022/06/26 08:55:51;;;;;;;1.67;0.80;;;27.30;56.10;;;;;;5056205;28;20207;-49
2022/06/26 08:58:18;;;;;;;1.37;0.70;;;27.30;55.60;;;;;;5058734;28;20453;-49
2022/06/26 09:00:46;;;;;;;4.50;1.33;;;27.30;56.30;;;;;;5045143;28;20629;-49
2022/06/26 09:03:14;;;;;;;0.70;0.70;;;27.40;56.50;;;;;;5044943;28;20234;-49
2022/06/26 09:05:41;;;;;;;1.47;0.70;;;27.50;54.80;;;;;;5058028;28;21178;-49
2022/06/26 09:08:20;;;;;;;0.63;0.60;;;27.60;55.00;;;;;;5049994;28;20204;-48
2022/06/26 09:10:48;;;;;;;0.93;0.80;;;27.70;54.60;;;;;;5063907;28;20286;-49
2022/06/26 09:13:16;;;;;;;0.70;0.70;;;27.80;53.90;;;;;;5047203;28;20699;-49
2022/06/26 09:15:43;;;;;;;0.90;0.80;;;27.80;53.80;;;;;;5059992;28;20580;-49
2022/06/26 09:18:12;;;;;;;0.70;0.70;;;27.70;53.30;;;;;;5043268;28;20242;-48
2022/06/26 09:20:51;;;;;;;1.30;1.00;;;27.80;53.10;;;;;;5059232;28;20729;-48
2022/06/26 09:23:19;;;;;;;1.03;0.93;;;27.80;53.30;;;;;;5058734;28;20237;-46
2022/06/26 09:25:46;;;;;;;1.20;1.10;;;27.90;53.10;;;;;;5044183;28;20736;-46
2022/06/26 09:28:18;;;;;;;1.43;1.10;;;27.90;52.90;;;;;;5059355;28;20704;-46
2022/06/26 09:30:59;;;;;;;0.90;0.80;;;27.90;52.50;;;;;;5061418;28;20321;-47
2022/06/26 09:33:29;;;;;;;1.10;1.00;;;28.00;53.20;;;;;;5060787;28;21132;-47
2022/06/26 09:35:57;;;;;;;3.03;1.10;;;28.20;53.30;;;;;;5059019;28;20333;-47
2022/06/26 09:38:30;;;;;;;0.80;0.80;;;28.30;52.90;;;;;;5062605;28;20301;-47
2022/06/26 09:41:02;;;;;;;1.10;1.00;;;28.50;51.90;;;;;;5060630;28;20214;-46
2022/06/26 09:43:33;;;;;;;0.77;0.77;;;28.60;51.40;;;;;;5046373;28;20253;-47
2022/06/26 09:46:02;;;;;;;1.35;1.25;;;28.90;51.60;;;;;;5061956;28;20293;-47
2022/06/26 09:48:30;;;;;;;0.88;0.60;;;29.10;51.30;;;;;;5046520;28;20200;-47
2022/06/26 09:50:57;;;;;;;1.00;0.95;;;29.20;50.50;;;;;;5066299;28;20643;-47
2022/06/26 09:53:26;;;;;;;1.50;1.00;;;29.40;49.90;;;;;;5064440;28;20564;-47
2022/06/26 09:55:57;;;;;;;0.80;0.80;;;29.40;49.10;;;;;;5050019;28;20247;-47
2022/06/26 09:58:26;;;;;;;1.25;1.00;;;29.40;49.40;;;;;;5062291;28;20209;-47
2022/06/26 10:06:29;;;;;;;0.80;0.70;;;29.70;48.60;;;;;;5064142;28;20261;-46
2022/06/26 10:09:16;;;;;;;1.15;0.95;;;29.90;47.30;;;;;;5051814;28;20203;-47
2022/06/26 10:11:45;;;;;;;1.85;1.10;;;30.10;47.30;;;;;;5065628;28;20298;-47
2022/06/26 10:14:18;;;;;;;2.42;0.85;;;30.30;46.50;;;;;;5064578;28;20290;-47
2022/06/26 10:16:56;;;;;;;1.63;0.80;;;30.60;45.50;;;;;;5061400;28;20306;-47
2022/06/26 10:19:52;;;;;;;1.30;0.90;;;30.70;45.20;;;;;;5063748;28;20210;-47
2022/06/26 10:22:19;;;;;;;0.90;0.90;;;30.80;45.40;;;;;;5061195;28;20211;-47
2022/06/26 10:24:52;;;;;;;4.07;1.10;;;30.90;45.30;;;;;;5062422;28;20927;-47
2022/06/26 10:27:26;;;;;;;1.00;0.77;;;30.80;45.80;;;;;;5045349;28;20628;-47
2022/06/26 10:30:07;;;;;;;1.15;1.05;;;30.60;45.80;;;;;;5046524;28;20238;-47
2022/06/26 10:32:34;;;;;;;1.35;1.15;;;30.40;46.00;;;;;;5064907;28;20213;-47
2022/06/26 10:35:03;;;;;;;2.58;2.38;;;30.10;46.50;;;;;;5065217;28;20206;-47
2022/06/26 10:37:41;;;;;;;1.20;1.10;;;30.10;46.90;;;;;;5060578;28;20206;-47
2022/06/26 10:43:13;;;;;;;1.73;0.93;;;30.00;46.40;;;;;;5062075;28;20298;-45
2022/06/26 10:45:41;;;;;;;1.00;0.90;;;29.90;46.20;;;;;;5063671;28;20230;-45
2022/06/26 10:48:24;;;;;;;1.10;1.00;;;29.60;46.30;;;;;;5061268;28;20594;-45
2022/06/26 10:51:01;;;;;;;0.87;0.87;;;29.20;46.70;;;;;;5064585;28;20213;-45
2022/06/26 10:53:39;;;;;;;0.90;0.90;;;28.90;48.00;;;;;;5061017;28;20714;-46
2022/06/26 10:56:07;;;;;;;2.63;1.03;;;28.60;47.70;;;;;;5061815;28;20225;-46
2022/06/26 10:58:38;;;;;;;1.10;1.00;;;28.30;48.00;;;;;;5064539;28;20221;-46
2022/06/26 11:01:06;;;;;;;1.07;0.90;;;28.00;48.90;;;;;;5065437;28;20315;-46
2022/06/26 11:03:34;;;;;;;1.13;1.00;;;27.90;50.00;;;;;;5047035;28;20322;-49
2022/06/26 11:06:02;;;;;;;1.30;0.73;;;27.90;50.20;;;;;;5061748;28;20230;-49
2022/06/26 11:08:30;;;;;;;1.20;0.93;;;27.80;50.00;;;;;;5059940;28;20297;-49
2022/06/26 11:11:09;;;;;;;2.60;1.30;;;27.80;50.00;;;;;;5062908;28;20208;-50
2022/06/26 11:13:52;;;;;;;3.07;2.07;;;27.80;51.00;;;;;;5062598;28;20209;-49
2022/06/26 11:16:43;;;;;;;1.60;1.50;;;27.80;51.30;;;;;;5048298;28;20214;-49
2022/06/26 11:19:29;;;;;;;6.20;5.60;;;27.70;51.00;;;;;;5050204;28;20203;-49
2022/06/26 11:22:20;;;;;;;4.30;4.00;;;27.70;50.70;;;;;;5054082;28;20313;-46
2022/06/26 11:24:56;;;;;;;1.90;1.20;;;27.70;50.60;;;;;;5058330;28;20238;-47
2022/06/26 11:27:27;;;;;;;0.90;0.90;;;27.60;50.10;;;;;;5046195;28;20215;-46
2022/06/26 11:29:54;;;;;;;1.23;1.13;;;27.50;50.30;;;;;;5044883;28;20257;-47
2022/06/26 11:32:25;;;;;;;1.73;1.20;;;27.40;50.00;;;;;;5047060;28;20433;-47
2022/06/26 11:34:54;;;;;;;1.63;1.07;;;27.20;51.20;;;;;;5063966;28;20860;-47
2022/06/26 11:37:36;;;;;;;0.80;0.80;;;27.20;51.20;;;;;;5044061;28;20503;-47
2022/06/26 11:40:15;;;;;;;1.20;1.10;;;27.10;51.80;;;;;;5048877;28;20437;-47
2022/06/26 11:42:42;;;;;;;1.40;1.13;;;27.00;51.50;;;;;;5047073;28;20554;-47
2022/06/26 11:45:09;;;;;;;1.83;1.20;;;27.00;51.90;;;;;;5056486;28;20495;-47
2022/06/26 11:47:38;;;;;;;1.20;1.10;;;26.90;52.90;;;;;;5061781;28;20217;-47
2022/06/26 11:50:07;;;;;;;1.23;1.13;;;26.90;52.20;;;;;;5061946;28;20586;-47
2022/06/26 11:52:33;;;;;;;1.43;1.20;;;26.80;51.20;;;;;;5062058;28;20714;-47
2022/06/26 11:55:02;;;;;;;1.10;1.00;;;26.70;50.90;;;;;;5061275;28;21236;-47
2022/06/26 11:57:36;;;;;;;1.50;1.40;;;26.60;51.20;;;;;;5063830;28;20477;-47
2022/06/26 12:00:05;;;;;;;1.37;1.17;;;26.50;51.80;;;;;;5060861;28;20469;-47
2022/06/26 12:02:40;;;;;;;2.07;1.30;;;26.50;52.90;;;;;;5061108;28;21003;-47
2022/06/26 12:05:07;;;;;;;1.27;1.17;;;26.50;53.50;;;;;;5061880;28;20491;-47
2022/06/26 12:07:46;;;;;;;1.77;1.30;;;26.40;54.40;;;;;;5030458;28;20478;-47
2022/06/26 12:10:25;;;;;;;1.60;1.50;;;26.40;54.60;;;;;;5058724;28;20527;-47
2022/06/26 12:12:52;;;;;;;1.57;1.47;;;26.40;55.30;;;;;;5059922;28;20451;-47
2022/06/26 12:15:36;;;;;;;1.30;1.20;;;26.40;55.40;;;;;;5046464;28;20503;-47
2022/06/26 12:18:05;;;;;;;1.80;1.70;;;26.30;56.20;;;;;;5048197;28;20460;-47
2022/06/26 12:20:37;;;;;;;5.60;1.53;;;26.40;56.30;;;;;;5062833;28;20532;-47
2022/06/26 12:23:06;;;;;;;1.70;1.50;;;26.40;56.40;;;;;;5063924;28;20580;-47
2022/06/26 12:25:39;;;;;;;1.93;1.77;;;26.40;56.40;;;;;;5063438;28;20838;-47
2022/06/26 12:28:06;;;;;;;1.60;1.50;;;26.50;55.80;;;;;;5058269;28;20818;-47
2022/06/26 12:30:35;;;;;;;1.70;1.60;;;26.50;55.60;;;;;;5045990;28;20442;-47
2022/06/26 12:33:04;;;;;;;1.57;1.37;;;26.50;57.00;;;;;;5060890;28;20437;-47
2022/06/26 12:35:32;;;;;;;1.80;1.70;;;26.50;56.70;;;;;;5059269;28;20450;-47
2022/06/26 12:38:00;;;;;;;2.10;1.90;;;26.50;57.30;;;;;;5062512;28;20552;-47
2022/06/26 12:40:27;;;;;;;2.40;1.77;;;26.50;56.30;;;;;;5059595;28;20441;-47
2022/06/26 12:42:54;;;;;;;1.70;1.60;;;26.50;56.60;;;;;;5026334;28;20537;-47
2022/06/26 12:45:21;;;;;;;2.70;1.80;;;26.40;57.00;;;;;;5047178;28;20843;-47
2022/06/26 12:47:49;;;;;;;1.97;1.87;;;26.30;57.00;;;;;;5062828;28;20444;-47
2022/06/26 12:50:16;;;;;;;1.90;1.80;;;26.30;57.00;;;;;;5039305;28;20440;-47
2022/06/26 12:52:43;;;;;;;1.83;1.50;;;26.30;57.10;;;;;;5060971;28;20978;-47
2022/06/26 12:55:10;;;;;;;3.87;2.30;;;26.30;57.40;;;;;;5047619;28;20954;-47
2022/06/26 12:57:37;;;;;;;2.00;1.60;;;26.20;58.00;;;;;;5061669;28;20499;-47
2022/06/26 13:00:06;;;;;;;1.80;1.70;;;26.20;58.00;;;;;;5047026;28;20464;-47
2022/06/26 13:02:33;;;;;;;1.83;1.70;;;26.20;58.20;;;;;;5060603;28;20453;-47
2022/06/26 13:05:00;;;;;;;3.00;2.60;;;26.20;57.40;;;;;;5043537;28;20659;-47
2022/06/26 13:07:27;;;;;;;1.83;1.73;;;26.20;57.80;;;;;;5040470;28;20438;-47